sensor_id;sensor_type;location;lat;lon;timestamp;pressure;altitude;pressure_sealevel;temperature;humidity
16544;BME280;8384;47.996;7.786;2022-08-30T00:02:32;98897.47;;;18.31;88.01
16544;BME280;8384;47.996;7.786;2022-08-30T00:04:59;98898.13;;;18.14;89.04
16544;BME280;8384;47.996;7.786;2022-08-30T00:07:25;98908.66;;;18.26;88.73
16544;BME280;8384;47.996;7.786;2022-08-30T00:09:51;98918.78;;;18.31;89.19
16544;BME280;8384;47.996;7.786;2022-08-30T00:12:16;98920.09;;;18.33;88.75
16544;BME280;8384;47.996;7.786;2022-08-30T00:14:41;98910.50;;;18.17;89.38
16544;BME280;8384;47.996;7.786;2022-08-30T00:17:07;98915.59;;;18.23;89.70
16544;BME280;8384;47.996;7.786;2022-08-30T00:19:32;98917.06;;;18.21;89.55
16544;BME280;8384;47.996;7.786;2022-08-30T00:21:57;98917.34;;;18.19;89.90
16544;BME280;8384;47.996;7.786;2022-08-30T00:24:22;98913.88;;;18.13;89.50
16544;BME280;8384;47.996;7.786;2022-08-30T00:26:48;98915.19;;;18.16;89.28
16544;BME280;8384;47.996;7.786;2022-08-30T00:29:13;98924.00;;;18.18;89.30
16544;BME280;8384;47.996;7.786;2022-08-30T00:31:38;98923.06;;;17.95;91.50
16544;BME280;8384;47.996;7.786;2022-08-30T00:34:03;98915.16;;;17.88;91.86
16544;BME280;8384;47.996;7.786;2022-08-30T00:36:29;98923.28;;;17.98;91.04
16544;BME280;8384;47.996;7.786;2022-08-30T00:38:54;98930.47;;;17.99;90.62
16544;BME280;8384;47.996;7.786;2022-08-30T00:41:19;98924.84;;;18.05;89.98
16544;BME280;8384;47.996;7.786;2022-08-30T00:43:46;98919.09;;;18.15;88.92
16544;BME280;8384;47.996;7.786;2022-08-30T00:46:11;98917.66;;;18.04;88.85
16544;BME280;8384;47.996;7.786;2022-08-30T00:48:40;98918.19;;;18.06;89.37
16544;BME280;8384;47.996;7.786;2022-08-30T00:51:08;98917.66;;;18.04;89.32
16544;BME280;8384;47.996;7.786;2022-08-30T00:53:38;98909.47;;;17.98;89.19
16544;BME280;8384;47.996;7.786;2022-08-30T00:56:06;98904.94;;;17.89;89.72
16544;BME280;8384;47.996;7.786;2022-08-30T00:58:35;98903.69;;;17.81;89.78
16544;BME280;8384;47.996;7.786;2022-08-30T01:01:02;98901.44;;;17.83;89.33
16544;BME280;8384;47.996;7.786;2022-08-30T01:03:29;98911.59;;;17.88;90.04
16544;BME280;8384;47.996;7.786;2022-08-30T01:05:55;98921.44;;;17.94;89.56
16544;BME280;8384;47.996;7.786;2022-08-30T01:08:22;98911.41;;;17.51;91.47
16544;BME280;8384;47.996;7.786;2022-08-30T01:10:49;98905.84;;;17.37;92.32
16544;BME280;8384;47.996;7.786;2022-08-30T01:13:15;98910.31;;;17.52;91.98
16544;BME280;8384;47.996;7.786;2022-08-30T01:15:42;98919.63;;;17.56;91.51
16544;BME280;8384;47.996;7.786;2022-08-30T01:18:08;98914.91;;;17.57;91.17
16544;BME280;8384;47.996;7.786;2022-08-30T01:20:46;98915.75;;;17.57;90.77
16544;BME280;8384;47.996;7.786;2022-08-30T01:23:15;98912.56;;;17.64;90.56
16544;BME280;8384;47.996;7.786;2022-08-30T01:25:44;98917.91;;;17.60;90.18
16544;BME280;8384;47.996;7.786;2022-08-30T01:28:16;98918.81;;;17.69;89.70
16544;BME280;8384;47.996;7.786;2022-08-30T01:30:42;98909.63;;;17.60;89.98
16544;BME280;8384;47.996;7.786;2022-08-30T01:33:09;98922.03;;;17.44;91.56
16544;BME280;8384;47.996;7.786;2022-08-30T01:35:50;98921.47;;;17.28;93.33
16544;BME280;8384;47.996;7.786;2022-08-30T01:38:19;98923.06;;;16.96;95.82
16544;BME280;8384;47.996;7.786;2022-08-30T01:40:45;98915.00;;;16.80;96.03
16544;BME280;8384;47.996;7.786;2022-08-30T01:43:12;98895.22;;;16.73;95.38
16544;BME280;8384;47.996;7.786;2022-08-30T01:45:38;98933.38;;;17.09;94.62
16544;BME280;8384;47.996;7.786;2022-08-30T01:48:03;98931.34;;;17.15;94.31
16544;BME280;8384;47.996;7.786;2022-08-30T01:50:29;98924.44;;;17.17;93.50
16544;BME280;8384;47.996;7.786;2022-08-30T01:52:54;98929.75;;;17.28;92.31
16544;BME280;8384;47.996;7.786;2022-08-30T01:55:19;98922.22;;;17.33;90.70
16544;BME280;8384;47.996;7.786;2022-08-30T01:57:45;98924.38;;;17.36;89.89
16544;BME280;8384;47.996;7.786;2022-08-30T02:00:12;98906.84;;;17.27;89.10
16544;BME280;8384;47.996;7.786;2022-08-30T02:02:37;98925.13;;;17.42;88.19
16544;BME280;8384;47.996;7.786;2022-08-30T02:05:04;98928.59;;;17.48;86.99
16544;BME280;8384;47.996;7.786;2022-08-30T02:07:29;98927.47;;;17.49;86.47
16544;BME280;8384;47.996;7.786;2022-08-30T02:09:54;98930.78;;;17.51;85.96
16544;BME280;8384;47.996;7.786;2022-08-30T02:12:20;98895.94;;;17.36;85.82
16544;BME280;8384;47.996;7.786;2022-08-30T02:14:46;98929.03;;;17.55;86.92
16544;BME280;8384;47.996;7.786;2022-08-30T02:17:13;98928.44;;;17.58;86.48
16544;BME280;8384;47.996;7.786;2022-08-30T02:19:39;98922.06;;;17.58;85.53
16544;BME280;8384;47.996;7.786;2022-08-30T02:22:05;98922.91;;;17.58;85.48
16544;BME280;8384;47.996;7.786;2022-08-30T02:24:31;98923.59;;;17.50;86.42
16544;BME280;8384;47.996;7.786;2022-08-30T02:26:56;98906.47;;;17.34;86.51
16544;BME280;8384;47.996;7.786;2022-08-30T02:29:23;98918.56;;;17.38;87.51
16544;BME280;8384;47.996;7.786;2022-08-30T02:31:48;98922.84;;;17.30;87.00
16544;BME280;8384;47.996;7.786;2022-08-30T02:34:14;98915.88;;;17.33;87.02
16544;BME280;8384;47.996;7.786;2022-08-30T02:36:40;98895.56;;;17.23;87.52
16544;BME280;8384;47.996;7.786;2022-08-30T02:39:09;98875.31;;;17.14;87.49
16544;BME280;8384;47.996;7.786;2022-08-30T02:41:35;98887.91;;;17.20;86.96
16544;BME280;8384;47.996;7.786;2022-08-30T02:44:03;98902.59;;;17.16;87.13
16544;BME280;8384;47.996;7.786;2022-08-30T02:46:28;98887.19;;;16.96;87.44
16544;BME280;8384;47.996;7.786;2022-08-30T02:48:53;98881.94;;;16.94;86.71
16544;BME280;8384;47.996;7.786;2022-08-30T02:51:19;98880.47;;;17.35;85.21
16544;BME280;8384;47.996;7.786;2022-08-30T02:53:44;98888.59;;;17.45;85.05
16544;BME280;8384;47.996;7.786;2022-08-30T02:56:11;98884.56;;;17.37;84.16
16544;BME280;8384;47.996;7.786;2022-08-30T02:58:37;98887.19;;;16.96;86.95
16544;BME280;8384;47.996;7.786;2022-08-30T03:01:04;98885.84;;;16.74;87.48
16544;BME280;8384;47.996;7.786;2022-08-30T03:03:30;98881.22;;;16.69;88.50
16544;BME280;8384;47.996;7.786;2022-08-30T03:05:55;98887.19;;;16.76;88.43
16544;BME280;8384;47.996;7.786;2022-08-30T03:08:20;98887.63;;;16.84;88.12
16544;BME280;8384;47.996;7.786;2022-08-30T03:10:47;98885.81;;;16.93;88.04
16544;BME280;8384;47.996;7.786;2022-08-30T03:13:12;98888.91;;;16.91;87.85
16544;BME280;8384;47.996;7.786;2022-08-30T03:15:37;98886.63;;;16.36;90.96
16544;BME280;8384;47.996;7.786;2022-08-30T03:18:04;98875.44;;;16.27;91.13
16544;BME280;8384;47.996;7.786;2022-08-30T03:20:30;98885.38;;;16.28;91.60
16544;BME280;8384;47.996;7.786;2022-08-30T03:22:56;98895.41;;;16.19;92.69
16544;BME280;8384;47.996;7.786;2022-08-30T03:25:22;98896.88;;;16.11;93.05
16544;BME280;8384;47.996;7.786;2022-08-30T03:27:48;98886.91;;;16.15;92.72
16544;BME280;8384;47.996;7.786;2022-08-30T03:30:16;98890.25;;;16.12;92.86
16544;BME280;8384;47.996;7.786;2022-08-30T03:32:41;98878.31;;;15.98;93.42
16544;BME280;8384;47.996;7.786;2022-08-30T03:35:07;98881.69;;;16.14;92.77
16544;BME280;8384;47.996;7.786;2022-08-30T03:37:32;98881.91;;;16.17;92.44
16544;BME280;8384;47.996;7.786;2022-08-30T03:39:57;98880.63;;;16.10;92.83
16544;BME280;8384;47.996;7.786;2022-08-30T03:42:23;98886.84;;;15.96;94.15
16544;BME280;8384;47.996;7.786;2022-08-30T03:44:48;98882.22;;;15.92;94.60
16544;BME280;8384;47.996;7.786;2022-08-30T03:47:14;98878.41;;;15.87;95.05
16544;BME280;8384;47.996;7.786;2022-08-30T03:49:39;98904.50;;;15.95;94.66
16544;BME280;8384;47.996;7.786;2022-08-30T03:52:04;98900.31;;;15.73;95.35
16544;BME280;8384;47.996;7.786;2022-08-30T03:54:30;98919.06;;;15.71;96.54
16544;BME280;8384;47.996;7.786;2022-08-30T03:56:55;98891.94;;;15.54;97.00
16544;BME280;8384;47.996;7.786;2022-08-30T03:59:21;98907.09;;;15.57;96.95
16544;BME280;8384;47.996;7.786;2022-08-30T04:01:46;98929.47;;;15.80;96.83
16544;BME280;8384;47.996;7.786;2022-08-30T04:04:12;98908.63;;;15.68;96.23
16544;BME280;8384;47.996;7.786;2022-08-30T04:06:38;98898.25;;;15.89;95.94
16544;BME280;8384;47.996;7.786;2022-08-30T04:09:03;98909.06;;;16.05;95.41
16544;BME280;8384;47.996;7.786;2022-08-30T04:11:29;98884.41;;;15.95;94.67
16544;BME280;8384;47.996;7.786;2022-08-30T04:13:54;98884.88;;;16.02;93.49
16544;BME280;8384;47.996;7.786;2022-08-30T04:16:22;98899.53;;;16.22;92.66
16544;BME280;8384;47.996;7.786;2022-08-30T04:18:47;98905.31;;;16.20;92.59
16544;BME280;8384;47.996;7.786;2022-08-30T04:21:13;98883.09;;;16.11;93.20
16544;BME280;8384;47.996;7.786;2022-08-30T04:23:40;98903.41;;;16.21;93.31
16544;BME280;8384;47.996;7.786;2022-08-30T04:26:05;98909.19;;;16.19;92.91
16544;BME280;8384;47.996;7.786;2022-08-30T04:28:30;98903.44;;;16.15;93.31
16544;BME280;8384;47.996;7.786;2022-08-30T04:30:55;98898.72;;;15.67;96.07
16544;BME280;8384;47.996;7.786;2022-08-30T04:33:21;98910.03;;;15.66;97.05
16544;BME280;8384;47.996;7.786;2022-08-30T04:35:48;98895.91;;;15.72;96.45
16544;BME280;8384;47.996;7.786;2022-08-30T04:38:14;98901.38;;;15.78;95.96
16544;BME280;8384;47.996;7.786;2022-08-30T04:40:42;98903.53;;;15.81;95.57
16544;BME280;8384;47.996;7.786;2022-08-30T04:43:08;98890.56;;;15.81;95.33
16544;BME280;8384;47.996;7.786;2022-08-30T04:45:33;98899.88;;;15.91;95.22
16544;BME280;8384;47.996;7.786;2022-08-30T04:47:59;98905.41;;;15.85;95.74
16544;BME280;8384;47.996;7.786;2022-08-30T04:50:24;98897.28;;;15.45;98.16
16544;BME280;8384;47.996;7.786;2022-08-30T04:52:49;98908.63;;;15.68;97.41
16544;BME280;8384;47.996;7.786;2022-08-30T04:55:15;98910.75;;;15.77;97.34
16544;BME280;8384;47.996;7.786;2022-08-30T04:57:41;98912.03;;;15.84;96.78
16544;BME280;8384;47.996;7.786;2022-08-30T05:00:10;98919.34;;;15.99;95.58
16544;BME280;8384;47.996;7.786;2022-08-30T05:02:36;98916.91;;;15.98;95.54
16544;BME280;8384;47.996;7.786;2022-08-30T05:05:02;98901.06;;;15.79;96.02
16544;BME280;8384;47.996;7.786;2022-08-30T05:07:46;98924.16;;;15.88;97.18
16544;BME280;8384;47.996;7.786;2022-08-30T05:10:11;98912.81;;;15.90;96.50
16544;BME280;8384;47.996;7.786;2022-08-30T05:12:37;98915.22;;;16.21;91.64
16544;BME280;8384;47.996;7.786;2022-08-30T05:15:03;98895.94;;;16.21;91.63
16544;BME280;8384;47.996;7.786;2022-08-30T05:17:28;98920.19;;;16.43;91.60
16544;BME280;8384;47.996;7.786;2022-08-30T05:19:54;98931.81;;;16.40;92.00
16544;BME280;8384;47.996;7.786;2022-08-30T05:22:19;98934.81;;;16.44;92.11
16544;BME280;8384;47.996;7.786;2022-08-30T05:24:44;98933.16;;;16.43;92.62
16544;BME280;8384;47.996;7.786;2022-08-30T05:27:09;98941.53;;;16.38;93.16
16544;BME280;8384;47.996;7.786;2022-08-30T05:29:35;98935.97;;;16.62;92.59
16544;BME280;8384;47.996;7.786;2022-08-30T05:32:00;98920.50;;;16.61;91.80
16544;BME280;8384;47.996;7.786;2022-08-30T05:34:28;98930.06;;;16.69;92.70
16544;BME280;8384;47.996;7.786;2022-08-30T05:36:54;98919.19;;;16.77;90.28
16544;BME280;8384;47.996;7.786;2022-08-30T05:39:19;98945.03;;;17.06;86.89
16544;BME280;8384;47.996;7.786;2022-08-30T05:41:45;98950.00;;;17.42;83.71
16544;BME280;8384;47.996;7.786;2022-08-30T05:44:10;98944.16;;;17.44;81.30
16544;BME280;8384;47.996;7.786;2022-08-30T05:46:37;98931.00;;;17.35;82.48
16544;BME280;8384;47.996;7.786;2022-08-30T05:49:05;98954.91;;;17.45;82.42
16544;BME280;8384;47.996;7.786;2022-08-30T05:51:33;98948.56;;;17.45;84.23
16544;BME280;8384;47.996;7.786;2022-08-30T05:53:59;98943.88;;;17.26;85.10
16544;BME280;8384;47.996;7.786;2022-08-30T05:56:28;98939.63;;;17.34;84.27
16544;BME280;8384;47.996;7.786;2022-08-30T05:58:54;98940.56;;;17.43;84.73
16544;BME280;8384;47.996;7.786;2022-08-30T06:01:24;98936.91;;;17.48;84.90
16544;BME280;8384;47.996;7.786;2022-08-30T06:03:50;98934.34;;;17.51;85.07
16544;BME280;8384;47.996;7.786;2022-08-30T06:06:16;98925.75;;;17.53;84.91
16544;BME280;8384;47.996;7.786;2022-08-30T06:08:41;98937.66;;;17.67;85.63
16544;BME280;8384;47.996;7.786;2022-08-30T06:11:10;98925.38;;;17.74;85.08
16544;BME280;8384;47.996;7.786;2022-08-30T06:13:35;98940.69;;;17.85;85.64
16544;BME280;8384;47.996;7.786;2022-08-30T06:16:00;98937.41;;;17.83;85.47
16544;BME280;8384;47.996;7.786;2022-08-30T06:18:26;98939.75;;;17.90;85.17
16544;BME280;8384;47.996;7.786;2022-08-30T06:20:51;98945.56;;;17.88;85.74
16544;BME280;8384;47.996;7.786;2022-08-30T06:23:16;98936.91;;;17.48;90.38
16544;BME280;8384;47.996;7.786;2022-08-30T06:25:42;98949.69;;;17.44;90.92
16544;BME280;8384;47.996;7.786;2022-08-30T06:28:09;98954.16;;;17.39;92.30
16544;BME280;8384;47.996;7.786;2022-08-30T06:30:34;98938.88;;;17.28;91.65
16544;BME280;8384;47.996;7.786;2022-08-30T06:33:00;98944.78;;;17.54;90.92
16544;BME280;8384;47.996;7.786;2022-08-30T06:35:26;98945.28;;;17.90;89.09
16544;BME280;8384;47.996;7.786;2022-08-30T06:37:51;98937.97;;;18.27;85.86
16544;BME280;8384;47.996;7.786;2022-08-30T06:40:17;98929.00;;;18.44;84.37
16544;BME280;8384;47.996;7.786;2022-08-30T06:42:44;98916.00;;;18.44;83.78
16544;BME280;8384;47.996;7.786;2022-08-30T06:45:10;98934.94;;;18.65;83.56
16544;BME280;8384;47.996;7.786;2022-08-30T06:47:35;98939.72;;;18.87;81.67
16544;BME280;8384;47.996;7.786;2022-08-30T06:50:00;98938.25;;;19.04;80.99
16544;BME280;8384;47.996;7.786;2022-08-30T06:52:26;98942.16;;;19.26;79.74
16544;BME280;8384;47.996;7.786;2022-08-30T06:54:53;98945.38;;;19.42;77.44
16544;BME280;8384;47.996;7.786;2022-08-30T06:57:18;98949.22;;;19.55;75.97
16544;BME280;8384;47.996;7.786;2022-08-30T06:59:44;98950.09;;;19.64;75.61
16544;BME280;8384;47.996;7.786;2022-08-30T07:04:34;98961.56;;;19.71;74.59
16544;BME280;8384;47.996;7.786;2022-08-30T07:07:00;98936.69;;;19.57;72.99
16544;BME280;8384;47.996;7.786;2022-08-30T07:09:25;98962.50;;;19.67;73.13
16544;BME280;8384;47.996;7.786;2022-08-30T07:11:52;98959.78;;;19.75;72.86
16544;BME280;8384;47.996;7.786;2022-08-30T07:14:18;98947.03;;;19.74;72.43
16544;BME280;8384;47.996;7.786;2022-08-30T07:16:44;98944.34;;;19.60;73.89
16544;BME280;8384;47.996;7.786;2022-08-30T07:19:10;98954.72;;;19.77;75.51
16544;BME280;8384;47.996;7.786;2022-08-30T07:21:38;98959.41;;;19.91;74.62
16544;BME280;8384;47.996;7.786;2022-08-30T07:24:05;98958.44;;;19.96;74.83
16544;BME280;8384;47.996;7.786;2022-08-30T07:26:37;98945.47;;;20.14;74.08
16544;BME280;8384;47.996;7.786;2022-08-30T07:29:03;98935.03;;;20.19;73.44
16544;BME280;8384;47.996;7.786;2022-08-30T07:31:29;98928.44;;;20.38;71.89
16544;BME280;8384;47.996;7.786;2022-08-30T07:33:54;98955.22;;;20.51;72.20
16544;BME280;8384;47.996;7.786;2022-08-30T07:36:20;98965.13;;;20.84;71.18
16544;BME280;8384;47.996;7.786;2022-08-30T07:38:47;98960.88;;;20.87;70.55
16544;BME280;8384;47.996;7.786;2022-08-30T07:41:25;98966.28;;;21.01;69.22
16544;BME280;8384;47.996;7.786;2022-08-30T07:43:51;98965.78;;;21.25;68.52
16544;BME280;8384;47.996;7.786;2022-08-30T07:46:17;98967.75;;;21.51;66.49
16544;BME280;8384;47.996;7.786;2022-08-30T07:48:43;98955.47;;;21.78;65.99
16544;BME280;8384;47.996;7.786;2022-08-30T07:51:14;98969.19;;;22.31;63.36
16544;BME280;8384;47.996;7.786;2022-08-30T07:53:40;98957.09;;;22.27;63.05
16544;BME280;8384;47.996;7.786;2022-08-30T07:56:05;98971.81;;;22.27;62.13
16544;BME280;8384;47.996;7.786;2022-08-30T07:58:31;98970.16;;;22.26;62.04
16544;BME280;8384;47.996;7.786;2022-08-30T08:00:57;98975.00;;;22.56;60.57
16544;BME280;8384;47.996;7.786;2022-08-30T08:03:26;98948.47;;;22.80;60.53
16544;BME280;8384;47.996;7.786;2022-08-30T08:05:51;98974.97;;;23.07;59.28
16544;BME280;8384;47.996;7.786;2022-08-30T08:08:18;98969.28;;;23.03;57.52
16544;BME280;8384;47.996;7.786;2022-08-30T08:10:43;98973.78;;;22.66;59.60
16544;BME280;8384;47.996;7.786;2022-08-30T08:13:09;98965.19;;;22.80;58.28
16544;BME280;8384;47.996;7.786;2022-08-30T08:15:34;98983.94;;;22.91;58.45
16544;BME280;8384;47.996;7.786;2022-08-30T08:17:59;98983.41;;;22.98;57.31
16544;BME280;8384;47.996;7.786;2022-08-30T08:20:25;98983.56;;;23.23;57.73
16544;BME280;8384;47.996;7.786;2022-08-30T08:22:51;98980.91;;;23.48;57.76
16544;BME280;8384;47.996;7.786;2022-08-30T08:25:17;98978.66;;;23.75;57.60
16544;BME280;8384;47.996;7.786;2022-08-30T08:27:45;98969.84;;;24.19;55.63
16544;BME280;8384;47.996;7.786;2022-08-30T08:30:11;98971.25;;;24.25;55.17
16544;BME280;8384;47.996;7.786;2022-08-30T08:32:36;98973.72;;;23.80;56.15
16544;BME280;8384;47.996;7.786;2022-08-30T08:35:02;98957.28;;;23.66;56.52
16544;BME280;8384;47.996;7.786;2022-08-30T08:37:27;98950.22;;;23.48;57.17
16544;BME280;8384;47.996;7.786;2022-08-30T08:39:52;98963.06;;;23.61;56.74
16544;BME280;8384;47.996;7.786;2022-08-30T08:42:47;98963.09;;;24.07;55.99
16544;BME280;8384;47.996;7.786;2022-08-30T08:45:30;98958.50;;;23.90;54.75
16544;BME280;8384;47.996;7.786;2022-08-30T08:48:27;98954.72;;;23.74;55.19
16544;BME280;8384;47.996;7.786;2022-08-30T08:50:54;98954.75;;;23.86;53.38
16544;BME280;8384;47.996;7.786;2022-08-30T08:53:39;98926.56;;;23.66;53.67
16544;BME280;8384;47.996;7.786;2022-08-30T08:56:09;98957.41;;;24.41;52.19
16544;BME280;8384;47.996;7.786;2022-08-30T08:58:43;98955.66;;;24.74;50.59
16544;BME280;8384;47.996;7.786;2022-08-30T09:01:11;98956.56;;;24.40;51.96
16544;BME280;8384;47.996;7.786;2022-08-30T09:03:37;98954.19;;;23.93;52.28
16544;BME280;8384;47.996;7.786;2022-08-30T09:06:11;98949.59;;;24.09;52.15
16544;BME280;8384;47.996;7.786;2022-08-30T09:08:42;98947.97;;;24.08;52.16
16544;BME280;8384;47.996;7.786;2022-08-30T09:11:10;98953.91;;;24.19;51.51
16544;BME280;8384;47.996;7.786;2022-08-30T09:13:41;98940.06;;;24.35;50.84
16544;BME280;8384;47.996;7.786;2022-08-30T09:16:06;98960.91;;;24.38;50.28
16544;BME280;8384;47.996;7.786;2022-08-30T09:18:46;98953.44;;;24.30;51.26
16544;BME280;8384;47.996;7.786;2022-08-30T09:21:13;98948.56;;;24.14;51.06
16544;BME280;8384;47.996;7.786;2022-08-30T09:23:50;98956.56;;;24.40;50.77
16544;BME280;8384;47.996;7.786;2022-08-30T09:26:29;98956.34;;;24.83;50.31
16544;BME280;8384;47.996;7.786;2022-08-30T09:28:54;98953.81;;;25.19;49.03
16544;BME280;8384;47.996;7.786;2022-08-30T09:34:07;98936.69;;;25.93;47.46
16544;BME280;8384;47.996;7.786;2022-08-30T09:36:42;98943.06;;;26.74;45.14
16544;BME280;8384;47.996;7.786;2022-08-30T09:39:18;98920.75;;;27.36;43.86
16544;BME280;8384;47.996;7.786;2022-08-30T09:41:48;98933.19;;;28.21;41.41
16544;BME280;8384;47.996;7.786;2022-08-30T09:44:15;98934.66;;;27.92;39.92
16544;BME280;8384;47.996;7.786;2022-08-30T09:46:49;98925.53;;;27.75;41.72
16544;BME280;8384;47.996;7.786;2022-08-30T09:49:36;98924.97;;;27.66;41.11
16544;BME280;8384;47.996;7.786;2022-08-30T09:55:25;98914.22;;;28.41;38.58
16544;BME280;8384;47.996;7.786;2022-08-30T09:58:08;98904.38;;;28.28;39.29
16544;BME280;8384;47.996;7.786;2022-08-30T10:00:42;98917.44;;;27.50;40.99
16544;BME280;8384;47.996;7.786;2022-08-30T10:03:24;98915.72;;;27.46;41.37
16544;BME280;8384;47.996;7.786;2022-08-30T10:08:33;98911.41;;;27.09;42.61
16544;BME280;8384;47.996;7.786;2022-08-30T10:14:33;98907.63;;;27.83;41.58
16544;BME280;8384;47.996;7.786;2022-08-30T10:20:04;98912.56;;;27.28;42.72
16544;BME280;8384;47.996;7.786;2022-08-30T10:22:43;98900.47;;;26.84;43.69
16544;BME280;8384;47.996;7.786;2022-08-30T10:25:21;98884.81;;;26.83;43.47
16544;BME280;8384;47.996;7.786;2022-08-30T10:27:55;98892.63;;;26.93;42.88
16544;BME280;8384;47.996;7.786;2022-08-30T10:30:23;98887.41;;;26.92;45.01
16544;BME280;8384;47.996;7.786;2022-08-30T10:32:54;98890.34;;;27.19;43.13
16544;BME280;8384;47.996;7.786;2022-08-30T10:35:25;98892.78;;;26.81;44.00
16544;BME280;8384;47.996;7.786;2022-08-30T10:38:09;98913.56;;;26.80;43.98
16544;BME280;8384;47.996;7.786;2022-08-30T10:40:37;98908.38;;;26.98;43.81
16544;BME280;8384;47.996;7.786;2022-08-30T10:45:52;98887.41;;;27.97;41.71
16544;BME280;8384;47.996;7.786;2022-08-30T10:48:24;98901.56;;;28.05;41.03
16544;BME280;8384;47.996;7.786;2022-08-30T10:50:53;98906.31;;;27.77;42.03
16544;BME280;8384;47.996;7.786;2022-08-30T10:53:40;98904.06;;;27.87;42.84
16544;BME280;8384;47.996;7.786;2022-08-30T10:56:10;98902.13;;;28.14;41.72
16544;BME280;8384;47.996;7.786;2022-08-30T10:58:37;98906.22;;;28.17;41.70
16544;BME280;8384;47.996;7.786;2022-08-30T11:07:24;98896.84;;;28.63;41.51
16544;BME280;8384;47.996;7.786;2022-08-30T11:18:18;98886.66;;;29.84;38.17
16544;BME280;8384;47.996;7.786;2022-08-30T11:20:47;98868.34;;;29.25;39.43
16544;BME280;8384;47.996;7.786;2022-08-30T11:23:29;98882.53;;;29.74;38.88
16544;BME280;8384;47.996;7.786;2022-08-30T11:26:04;98884.13;;;30.69;37.45
16544;BME280;8384;47.996;7.786;2022-08-30T11:33:52;98874.34;;;31.47;35.57
16544;BME280;8384;47.996;7.786;2022-08-30T11:41:41;98875.66;;;32.29;33.89
16544;BME280;8384;47.996;7.786;2022-08-30T11:46:54;98874.03;;;32.36;33.13
16544;BME280;8384;47.996;7.786;2022-08-30T11:49:47;98867.91;;;32.55;32.55
16544;BME280;8384;47.996;7.786;2022-08-30T11:52:38;98864.59;;;31.23;34.37
16544;BME280;8384;47.996;7.786;2022-08-30T11:55:18;98864.31;;;31.71;34.94
16544;BME280;8384;47.996;7.786;2022-08-30T11:58:30;98861.47;;;32.40;32.23
16544;BME280;8384;47.996;7.786;2022-08-30T12:03:59;98851.75;;;31.51;32.55
16544;BME280;8384;47.996;7.786;2022-08-30T12:06:47;98853.81;;;31.79;32.65
16544;BME280;8384;47.996;7.786;2022-08-30T12:11:55;98843.28;;;31.51;33.59
16544;BME280;8384;47.996;7.786;2022-08-30T12:14:49;98835.66;;;31.98;33.27
16544;BME280;8384;47.996;7.786;2022-08-30T12:17:49;98838.88;;;32.37;32.16
16544;BME280;8384;47.996;7.786;2022-08-30T12:20:43;98819.28;;;32.97;32.31
16544;BME280;8384;47.996;7.786;2022-08-30T12:23:18;98819.03;;;33.44;30.28
16544;BME280;8384;47.996;7.786;2022-08-30T12:25:44;98824.75;;;31.79;32.94
16544;BME280;8384;47.996;7.786;2022-08-30T12:30:35;98826.34;;;30.51;35.26
16544;BME280;8384;47.996;7.786;2022-08-30T12:33:03;98820.16;;;29.75;36.91
16544;BME280;8384;47.996;7.786;2022-08-30T12:35:29;98814.13;;;28.94;38.57
16544;BME280;8384;47.996;7.786;2022-08-30T12:38:01;98813.47;;;29.46;37.74
16544;BME280;8384;47.996;7.786;2022-08-30T12:40:28;98818.59;;;29.78;38.30
16544;BME280;8384;47.996;7.786;2022-08-30T12:43:00;98814.06;;;29.66;38.43
16544;BME280;8384;47.996;7.786;2022-08-30T12:45:31;98809.81;;;29.42;38.10
16544;BME280;8384;47.996;7.786;2022-08-30T12:48:00;98811.00;;;29.37;38.86
16544;BME280;8384;47.996;7.786;2022-08-30T12:50:32;98806.84;;;30.21;37.38
16544;BME280;8384;47.996;7.786;2022-08-30T12:53:02;98816.25;;;29.87;37.09
16544;BME280;8384;47.996;7.786;2022-08-30T12:55:31;98797.63;;;30.28;37.37
16544;BME280;8384;47.996;7.786;2022-08-30T12:58:09;98810.81;;;30.79;35.55
16544;BME280;8384;47.996;7.786;2022-08-30T13:00:40;98799.31;;;31.57;34.46
16544;BME280;8384;47.996;7.786;2022-08-30T13:05:46;98786.25;;;30.98;35.15
16544;BME280;8384;47.996;7.786;2022-08-30T13:08:21;98781.88;;;31.11;34.88
16544;BME280;8384;47.996;7.786;2022-08-30T13:11:04;98784.75;;;31.48;35.30
16544;BME280;8384;47.996;7.786;2022-08-30T13:13:42;98768.59;;;31.26;34.23
16544;BME280;8384;47.996;7.786;2022-08-30T13:18:45;98776.69;;;31.57;34.25
16544;BME280;8384;47.996;7.786;2022-08-30T13:23:46;98756.03;;;30.99;34.76
16544;BME280;8384;47.996;7.786;2022-08-30T13:26:12;98745.13;;;30.93;35.04
16544;BME280;8384;47.996;7.786;2022-08-30T13:28:51;98744.16;;;30.46;36.54
16544;BME280;8384;47.996;7.786;2022-08-30T13:31:17;98729.53;;;30.22;36.85
16544;BME280;8384;47.996;7.786;2022-08-30T13:33:43;98732.94;;;30.64;35.23
16544;BME280;8384;47.996;7.786;2022-08-30T13:36:12;98724.66;;;31.29;34.75
16544;BME280;8384;47.996;7.786;2022-08-30T13:38:38;98709.72;;;31.43;34.01
16544;BME280;8384;47.996;7.786;2022-08-30T13:41:04;98723.78;;;31.14;34.28
16544;BME280;8384;47.996;7.786;2022-08-30T13:43:29;98706.03;;;30.95;34.29
16544;BME280;8384;47.996;7.786;2022-08-30T13:45:55;98715.94;;;30.46;34.90
16544;BME280;8384;47.996;7.786;2022-08-30T13:48:22;98726.19;;;31.01;34.57
16544;BME280;8384;47.996;7.786;2022-08-30T13:50:47;98726.19;;;31.01;34.21
16544;BME280;8384;47.996;7.786;2022-08-30T13:53:13;98730.28;;;31.51;33.04
16544;BME280;8384;47.996;7.786;2022-08-30T13:55:40;98705.25;;;31.71;32.74
16544;BME280;8384;47.996;7.786;2022-08-30T13:58:05;98730.91;;;32.56;31.88
16544;BME280;8384;47.996;7.786;2022-08-30T14:00:30;98711.47;;;32.66;30.82
16544;BME280;8384;47.996;7.786;2022-08-30T14:02:56;98731.63;;;33.39;30.43
16544;BME280;8384;47.996;7.786;2022-08-30T14:05:30;98728.16;;;34.11;29.49
16544;BME280;8384;47.996;7.786;2022-08-30T14:07:56;98725.97;;;33.42;29.35
16544;BME280;8384;47.996;7.786;2022-08-30T14:10:25;98720.75;;;33.30;30.09
16544;BME280;8384;47.996;7.786;2022-08-30T14:12:52;98715.88;;;33.79;28.46
16544;BME280;8384;47.996;7.786;2022-08-30T14:15:17;98719.81;;;32.95;30.25
16544;BME280;8384;47.996;7.786;2022-08-30T14:17:43;98717.59;;;33.73;29.69
16544;BME280;8384;47.996;7.786;2022-08-30T14:20:09;98724.13;;;34.08;29.04
16544;BME280;8384;47.996;7.786;2022-08-30T14:22:34;98712.16;;;33.90;27.84